sensor_id;sensor_type;location;lat;lon;timestamp;pressure;altitude;pressure_sealevel;temperature;humidity
46448;BME280;32145;50.390;30.778;2023-03-25T00:02:07;99250.31;;;13.17;60.00
46448;BME280;32145;50.390;30.778;2023-03-25T00:05:02;99245.94;;;13.16;60.07
46448;BME280;32145;50.390;30.778;2023-03-25T00:07:56;99233.66;;;13.13;60.08
46448;BME280;32145;50.390;30.778;2023-03-25T00:10:51;99223.88;;;13.12;60.05
46448;BME280;32145;50.390;30.778;2023-03-25T00:13:45;99235.03;;;13.11;60.01
46448;BME280;32145;50.390;30.778;2023-03-25T00:16:40;99234.22;;;13.10;60.03
46448;BME280;32145;50.390;30.778;2023-03-25T00:19:36;99232.31;;;13.11;59.99
46448;BME280;32145;50.390;30.778;2023-03-25T00:22:30;99233.41;;;13.10;60.04
46448;BME280;32145;50.390;30.778;2023-03-25T00:25:24;99218.16;;;13.09;59.90
46448;BME280;32145;50.390;30.778;2023-03-25T00:28:18;99228.22;;;13.08;59.72
46448;BME280;32145;50.390;30.778;2023-03-25T00:31:13;99229.56;;;13.06;59.44
46448;BME280;32145;50.390;30.778;2023-03-25T00:34:08;99211.63;;;13.10;59.13
46448;BME280;32145;50.390;30.778;2023-03-25T00:37:04;99210.00;;;13.14;58.84
46448;BME280;32145;50.390;30.778;2023-03-25T00:39:58;99202.94;;;13.18;58.71
46448;BME280;32145;50.390;30.778;2023-03-25T00:42:52;99207.28;;;13.19;58.37
46448;BME280;32145;50.390;30.778;2023-03-25T00:45:47;99199.69;;;13.21;58.51
46448;BME280;32145;50.390;30.778;2023-03-25T00:48:41;99203.78;;;13.19;58.63
46448;BME280;32145;50.390;30.778;2023-03-25T00:51:36;99204.84;;;13.18;58.78
46448;BME280;32145;50.390;30.778;2023-03-25T00:54:32;99208.94;;;13.20;58.57
46448;BME280;32145;50.390;30.778;2023-03-25T00:57:26;99217.91;;;13.21;58.72
46448;BME280;32145;50.390;30.778;2023-03-25T01:00:20;99212.47;;;13.21;58.30
46448;BME280;32145;50.390;30.778;2023-03-25T01:03:14;99217.13;;;13.20;58.12
46448;BME280;32145;50.390;30.778;2023-03-25T01:06:12;99215.75;;;13.23;57.89
46448;BME280;32145;50.390;30.778;2023-03-25T01:09:10;99212.22;;;13.22;57.18
46448;BME280;32145;50.390;30.778;2023-03-25T01:12:07;99209.50;;;13.27;57.06
46448;BME280;32145;50.390;30.778;2023-03-25T01:15:05;99207.31;;;13.24;57.01
46448;BME280;32145;50.390;30.778;2023-03-25T01:18:01;99204.59;;;13.24;57.31
46448;BME280;32145;50.390;30.778;2023-03-25T01:20:57;99211.13;;;13.23;57.34
46448;BME280;32145;50.390;30.778;2023-03-25T01:23:52;99211.66;;;13.20;57.60
46448;BME280;32145;50.390;30.778;2023-03-25T01:26:46;99207.28;;;13.14;57.36
46448;BME280;32145;50.390;30.778;2023-03-25T01:29:42;99207.28;;;13.14;57.25
46448;BME280;32145;50.390;30.778;2023-03-25T01:32:36;99204.56;;;13.14;57.34
46448;BME280;32145;50.390;30.778;2023-03-25T01:35:30;99206.44;;;13.08;57.22
46448;BME280;32145;50.390;30.778;2023-03-25T01:38:25;99208.06;;;13.09;56.94
46448;BME280;32145;50.390;30.778;2023-03-25T01:41:20;99214.06;;;13.06;56.68
46448;BME280;32145;50.390;30.778;2023-03-25T01:47:42;99209.69;;;13.05;56.81
46448;BME280;32145;50.390;30.778;2023-03-25T01:50:40;99211.88;;;13.03;56.92
46448;BME280;32145;50.390;30.778;2023-03-25T01:53:35;99204.81;;;13.02;56.82
46448;BME280;32145;50.390;30.778;2023-03-25T01:56:32;99207.22;;;12.98;56.78
46448;BME280;32145;50.390;30.778;2023-03-25T01:59:27;99200.69;;;12.99;56.69
46448;BME280;32145;50.390;30.778;2023-03-25T02:02:24;99198.81;;;13.00;56.45
46448;BME280;32145;50.390;30.778;2023-03-25T02:05:26;99208.84;;;12.99;56.33
46448;BME280;32145;50.390;30.778;2023-03-25T02:08:25;99198.78;;;12.95;56.05
46448;BME280;32145;50.390;30.778;2023-03-25T02:11:21;99195.81;;;12.96;55.65
46448;BME280;32145;50.390;30.778;2023-03-25T02:14:20;99201.25;;;12.96;55.57
46448;BME280;32145;50.390;30.778;2023-03-25T02:17:25;99193.63;;;12.98;55.47
46448;BME280;32145;50.390;30.778;2023-03-25T02:24:35;99193.09;;;12.96;55.31
46448;BME280;32145;50.390;30.778;2023-03-25T02:27:53;99184.09;;;12.96;55.11
46448;BME280;32145;50.390;30.778;2023-03-25T02:34:34;99185.16;;;12.89;54.78
46448;BME280;32145;50.390;30.778;2023-03-25T02:38:05;99181.91;;;12.93;54.49
46448;BME280;32145;50.390;30.778;2023-03-25T02:41:06;99186.50;;;12.87;54.78
46448;BME280;32145;50.390;30.778;2023-03-25T02:44:12;99180.78;;;12.83;54.72
46448;BME280;32145;50.390;30.778;2023-03-25T02:47:13;99176.16;;;12.84;54.61
46448;BME280;32145;50.390;30.778;2023-03-25T02:50:13;99179.97;;;12.83;54.34
46448;BME280;32145;50.390;30.778;2023-03-25T02:53:16;99177.25;;;12.83;54.58
46448;BME280;32145;50.390;30.778;2023-03-25T02:56:15;99182.16;;;12.81;54.43
46448;BME280;32145;50.390;30.778;2023-03-25T02:59:14;99189.72;;;12.79;54.59
46448;BME280;32145;50.390;30.778;2023-03-25T03:02:11;99182.66;;;12.78;54.40
46448;BME280;32145;50.390;30.778;2023-03-25T03:05:21;99182.66;;;12.72;54.46
46448;BME280;32145;50.390;30.778;2023-03-25T03:08:35;99178.28;;;12.71;54.38
46448;BME280;32145;50.390;30.778;2023-03-25T03:11:36;99187.25;;;12.67;54.67
46448;BME280;32145;50.390;30.778;2023-03-25T03:15:04;99178.53;;;12.65;54.66
46448;BME280;32145;50.390;30.778;2023-03-25T03:18:08;99186.94;;;12.63;54.71
46448;BME280;32145;50.390;30.778;2023-03-25T03:21:10;99194.31;;;12.62;54.64
46448;BME280;32145;50.390;30.778;2023-03-25T03:24:13;99199.44;;;12.64;54.70
46448;BME280;32145;50.390;30.778;2023-03-25T03:27:13;99201.38;;;12.63;54.69
46448;BME280;32145;50.390;30.778;2023-03-25T03:30:15;99196.19;;;12.62;54.55
46448;BME280;32145;50.390;30.778;2023-03-25T03:33:16;99195.09;;;12.58;54.63
46448;BME280;32145;50.390;30.778;2023-03-25T03:36:16;99197.78;;;12.53;54.64
46448;BME280;32145;50.390;30.778;2023-03-25T03:39:18;99191.50;;;12.52;54.88
46448;BME280;32145;50.390;30.778;2023-03-25T03:42:19;99185.25;;;12.52;55.17
46448;BME280;32145;50.390;30.778;2023-03-25T03:45:21;99191.22;;;12.48;55.77
46448;BME280;32145;50.390;30.778;2023-03-25T03:48:22;99190.41;;;12.48;56.41
46448;BME280;32145;50.390;30.778;2023-03-25T03:51:22;99184.38;;;12.41;57.14
46448;BME280;32145;50.390;30.778;2023-03-25T03:54:23;99183.00;;;12.33;57.62
46448;BME280;32145;50.390;30.778;2023-03-25T03:57:20;99183.19;;;12.26;57.45
46448;BME280;32145;50.390;30.778;2023-03-25T04:00:21;99184.03;;;12.27;57.82
46448;BME280;32145;50.390;30.778;2023-03-25T04:03:21;99178.31;;;12.23;57.27
46448;BME280;32145;50.390;30.778;2023-03-25T04:06:22;99178.31;;;12.23;57.23
46448;BME280;32145;50.390;30.778;2023-03-25T04:09:23;99172.03;;;12.22;57.83
46448;BME280;32145;50.390;30.778;2023-03-25T04:12:24;99173.94;;;12.22;57.90
46448;BME280;32145;50.390;30.778;2023-03-25T04:15:20;99174.72;;;12.17;57.79
46448;BME280;32145;50.390;30.778;2023-03-25T04:18:17;99172.81;;;12.18;57.61
46448;BME280;32145;50.390;30.778;2023-03-25T04:21:13;99169.81;;;12.14;58.00
46448;BME280;32145;50.390;30.778;2023-03-25T04:24:09;99179.84;;;12.14;57.62
46448;BME280;32145;50.390;30.778;2023-03-25T04:27:05;99183.91;;;12.11;57.39
46448;BME280;32145;50.390;30.778;2023-03-25T04:29:59;99179.84;;;12.14;57.31
46448;BME280;32145;50.390;30.778;2023-03-25T04:32:54;99180.69;;;12.14;57.18
46448;BME280;32145;50.390;30.778;2023-03-25T04:35:48;99175.50;;;12.13;57.49
46448;BME280;32145;50.390;30.778;2023-03-25T04:38:44;99182.81;;;12.12;57.54
46448;BME280;32145;50.390;30.778;2023-03-25T04:41:41;99182.81;;;12.12;57.29
46448;BME280;32145;50.390;30.778;2023-03-25T04:44:38;99178.47;;;12.11;57.73
46448;BME280;32145;50.390;30.778;2023-03-25T04:47:35;99182.81;;;12.12;57.63
46448;BME280;32145;50.390;30.778;2023-03-25T04:50:32;99185.84;;;12.10;57.73
46448;BME280;32145;50.390;30.778;2023-03-25T04:53:28;99173.31;;;12.09;57.46
46448;BME280;32145;50.390;30.778;2023-03-25T04:56:25;99179.56;;;12.10;57.26
46448;BME280;32145;50.390;30.778;2023-03-25T04:59:21;99180.13;;;12.12;57.56
46448;BME280;32145;50.390;30.778;2023-03-25T05:02:18;99177.41;;;12.12;57.76
46448;BME280;32145;50.390;30.778;2023-03-25T05:05:16;99171.97;;;12.12;57.85
46448;BME280;32145;50.390;30.778;2023-03-25T05:08:13;99152.94;;;12.12;57.46
46448;BME280;32145;50.390;30.778;2023-03-25T05:11:09;99168.69;;;12.10;58.13
46448;BME280;32145;50.390;30.778;2023-03-25T05:14:06;99156.50;;;12.13;58.27
46448;BME280;32145;50.390;30.778;2023-03-25T05:17:02;99162.19;;;12.16;58.05
46448;BME280;32145;50.390;30.778;2023-03-25T05:20:00;99161.69;;;12.19;58.25
46448;BME280;32145;50.390;30.778;2023-03-25T05:22:56;99151.94;;;12.23;58.46
46448;BME280;32145;50.390;30.778;2023-03-25T05:25:52;99150.88;;;12.30;58.39
46448;BME280;32145;50.390;30.778;2023-03-25T05:28:49;99143.00;;;12.33;58.13
46448;BME280;32145;50.390;30.778;2023-03-25T05:31:45;99141.66;;;12.36;58.20
46448;BME280;32145;50.390;30.778;2023-03-25T05:34:41;99146.03;;;12.37;58.10
46448;BME280;32145;50.390;30.778;2023-03-25T05:37:39;99140.88;;;12.41;58.45
46448;BME280;32145;50.390;30.778;2023-03-25T05:40:35;99155.84;;;12.43;58.58
46448;BME280;32145;50.390;30.778;2023-03-25T05:43:32;99147.44;;;12.45;58.11
46448;BME280;32145;50.390;30.778;2023-03-25T05:46:28;99152.59;;;12.46;58.25
46448;BME280;32145;50.390;30.778;2023-03-25T05:49:22;99142.56;;;12.52;58.06
46448;BME280;32145;50.390;30.778;2023-03-25T05:52:18;99136.91;;;12.59;57.61
46448;BME280;32145;50.390;30.778;2023-03-25T05:55:19;99140.19;;;12.61;57.82
46448;BME280;32145;50.390;30.778;2023-03-25T05:58:13;99130.66;;;12.63;57.82
46448;BME280;32145;50.390;30.778;2023-03-25T06:01:09;99137.22;;;12.68;57.97
46448;BME280;32145;50.390;30.778;2023-03-25T06:04:04;99129.06;;;12.68;57.61
46448;BME280;32145;50.390;30.778;2023-03-25T06:06:58;99117.09;;;12.69;57.57
46448;BME280;32145;50.390;30.778;2023-03-25T06:09:52;99116.81;;;12.70;57.87
46448;BME280;32145;50.390;30.778;2023-03-25T06:12:48;99119.00;;;12.68;57.78
46448;BME280;32145;50.390;30.778;2023-03-25T06:15:42;99117.06;;;12.63;57.59
46448;BME280;32145;50.390;30.778;2023-03-25T06:18:37;99121.16;;;12.66;57.80
46448;BME280;32145;50.390;30.778;2023-03-25T06:21:32;99115.47;;;12.73;57.91
46448;BME280;32145;50.390;30.778;2023-03-25T06:24:26;99115.22;;;12.80;57.76
46448;BME280;32145;50.390;30.778;2023-03-25T06:27:20;99113.59;;;12.84;57.74
46448;BME280;32145;50.390;30.778;2023-03-25T06:30:19;99115.78;;;12.87;57.77
46448;BME280;32145;50.390;30.778;2023-03-25T06:33:14;99115.78;;;12.87;57.81
46448;BME280;32145;50.390;30.778;2023-03-25T06:36:09;99107.88;;;12.85;57.81
46448;BME280;32145;50.390;30.778;2023-03-25T06:39:03;99113.06;;;12.82;57.85
46448;BME280;32145;50.390;30.778;2023-03-25T06:41:58;99103.78;;;12.72;57.81
46448;BME280;32145;50.390;30.778;2023-03-25T06:44:53;99101.84;;;12.68;58.04
46448;BME280;32145;50.390;30.778;2023-03-25T06:47:48;99098.84;;;12.64;58.19
46448;BME280;32145;50.390;30.778;2023-03-25T06:50:43;99099.41;;;12.66;58.29
46448;BME280;32145;50.390;30.778;2023-03-25T06:53:37;99110.53;;;12.59;58.23
46448;BME280;32145;50.390;30.778;2023-03-25T06:56:31;99110.00;;;12.62;57.85
46448;BME280;32145;50.390;30.778;2023-03-25T06:59:28;99107.00;;;12.64;57.65
46448;BME280;32145;50.390;30.778;2023-03-25T07:02:22;99103.22;;;12.65;57.84
46448;BME280;32145;50.390;30.778;2023-03-25T07:05:18;99103.22;;;12.65;57.56
46448;BME280;32145;50.390;30.778;2023-03-25T07:08:12;99104.28;;;12.64;58.03
46448;BME280;32145;50.390;30.778;2023-03-25T07:11:07;99102.13;;;12.61;58.41
46448;BME280;32145;50.390;30.778;2023-03-25T07:14:01;99089.34;;;12.67;58.92
46448;BME280;32145;50.390;30.778;2023-03-25T07:16:55;99092.34;;;12.75;59.04
46448;BME280;32145;50.390;30.778;2023-03-25T07:19:52;99085.31;;;12.90;59.24
46448;BME280;32145;50.390;30.778;2023-03-25T07:22:50;99081.00;;;13.05;59.15
46448;BME280;32145;50.390;30.778;2023-03-25T07:25:46;99073.94;;;13.09;58.87
46448;BME280;32145;50.390;30.778;2023-03-25T07:28:42;99081.56;;;13.17;59.11
46448;BME280;32145;50.390;30.778;2023-03-25T07:31:37;99087.56;;;13.24;59.23
46448;BME280;32145;50.390;30.778;2023-03-25T07:34:31;99076.16;;;13.33;58.97
46448;BME280;32145;50.390;30.778;2023-03-25T07:37:25;99073.41;;;13.43;58.55
46448;BME280;32145;50.390;30.778;2023-03-25T07:40:21;99076.97;;;13.49;58.67
46448;BME280;32145;50.390;30.778;2023-03-25T07:43:15;99074.53;;;13.68;58.32
46448;BME280;32145;50.390;30.778;2023-03-25T07:46:10;99068.50;;;13.82;57.69
46448;BME280;32145;50.390;30.778;2023-03-25T07:49:04;99067.38;;;14.03;57.12
46448;BME280;32145;50.390;30.778;2023-03-25T07:51:59;99063.53;;;14.10;56.20
46448;BME280;32145;50.390;30.778;2023-03-25T07:54:53;99056.44;;;14.14;55.05
46448;BME280;32145;50.390;30.778;2023-03-25T07:57:49;99054.75;;;14.28;55.16
46448;BME280;32145;50.390;30.778;2023-03-25T08:00:43;99054.69;;;14.39;54.49
46448;BME280;32145;50.390;30.778;2023-03-25T08:03:38;99043.03;;;14.33;53.77
46448;BME280;32145;50.390;30.778;2023-03-25T08:06:32;99055.00;;;14.32;54.03
46448;BME280;32145;50.390;30.778;2023-03-25T08:09:27;99047.44;;;14.18;54.11
46448;BME280;32145;50.390;30.778;2023-03-25T08:12:21;99047.41;;;14.24;54.26
46448;BME280;32145;50.390;30.778;2023-03-25T08:15:17;99048.22;;;14.19;54.09
46448;BME280;32145;50.390;30.778;2023-03-25T08:18:11;99038.97;;;14.25;54.34
46448;BME280;32145;50.390;30.778;2023-03-25T08:21:07;99035.72;;;14.23;54.13
46448;BME280;32145;50.390;30.778;2023-03-25T08:24:04;99029.09;;;14.40;54.28
46448;BME280;32145;50.390;30.778;2023-03-25T08:26:59;99023.84;;;14.54;54.14
46448;BME280;32145;50.390;30.778;2023-03-25T08:29:53;99025.69;;;14.59;53.91
46448;BME280;32145;50.390;30.778;2023-03-25T08:32:49;99019.09;;;14.75;53.41
46448;BME280;32145;50.390;30.778;2023-03-25T08:35:43;99019.03;;;14.86;53.45
46448;BME280;32145;50.390;30.778;2023-03-25T08:38:37;99017.91;;;14.92;53.18
46448;BME280;32145;50.390;30.778;2023-03-25T08:41:31;99014.41;;;14.76;52.78
46448;BME280;32145;50.390;30.778;2023-03-25T08:44:26;99004.88;;;14.84;53.17
46448;BME280;32145;50.390;30.778;2023-03-25T08:47:20;98995.19;;;15.02;53.19
46448;BME280;32145;50.390;30.778;2023-03-25T08:50:21;98997.63;;;15.03;52.75
46448;BME280;32145;50.390;30.778;2023-03-25T08:53:17;99002.16;;;15.18;52.91
46448;BME280;32145;50.390;30.778;2023-03-25T08:56:14;98992.19;;;15.33;53.07
46448;BME280;32145;50.390;30.778;2023-03-25T08:59:08;98991.56;;;15.41;52.61
46448;BME280;32145;50.390;30.778;2023-03-25T09:02:03;98982.56;;;15.41;52.53
46448;BME280;32145;50.390;30.778;2023-03-25T09:04:57;98978.16;;;15.45;52.59
46448;BME280;32145;50.390;30.778;2023-03-25T09:07:53;98977.09;;;15.41;52.50
46448;BME280;32145;50.390;30.778;2023-03-25T09:10:47;98971.84;;;15.20;52.85
46448;BME280;32145;50.390;30.778;2023-03-25T09:13:41;98976.81;;;15.13;52.76
46448;BME280;32145;50.390;30.778;2023-03-25T09:16:35;98976.28;;;15.11;53.33
46448;BME280;32145;50.390;30.778;2023-03-25T09:19:30;98981.03;;;14.94;53.02
46448;BME280;32145;50.390;30.778;2023-03-25T09:22:24;98983.00;;;14.89;53.36
46448;BME280;32145;50.390;30.778;2023-03-25T09:25:19;98977.00;;;14.87;53.82
46448;BME280;32145;50.390;30.778;2023-03-25T09:28:14;98978.31;;;14.94;53.44
46448;BME280;32145;50.390;30.778;2023-03-25T09:31:08;98975.69;;;15.14;53.33
46448;BME280;32145;50.390;30.778;2023-03-25T09:34:03;98980.16;;;15.34;53.54
46448;BME280;32145;50.390;30.778;2023-03-25T09:36:57;98973.34;;;15.61;52.64
46448;BME280;32145;50.390;30.778;2023-03-25T09:39:51;98972.25;;;15.87;52.38
46448;BME280;32145;50.390;30.778;2023-03-25T09:42:55;98966.41;;;15.98;51.67
46448;BME280;32145;50.390;30.778;2023-03-25T09:45:54;98971.06;;;15.98;51.40
46448;BME280;32145;50.390;30.778;2023-03-25T09:48:51;98965.88;;;15.96;51.44
46448;BME280;32145;50.390;30.778;2023-03-25T09:51:49;98960.72;;;15.95;51.24
46448;BME280;32145;50.390;30.778;2023-03-25T09:54:49;98965.31;;;15.94;51.66
46448;BME280;32145;50.390;30.778;2023-03-25T09:57:48;98960.44;;;15.91;51.86
46448;BME280;32145;50.390;30.778;2023-03-25T10:00:48;98970.31;;;15.87;51.58
46448;BME280;32145;50.390;30.778;2023-03-25T10:03:53;98954.28;;;15.80;51.77
46448;BME280;32145;50.390;30.778;2023-03-25T10:06:52;98954.06;;;15.77;51.96
46448;BME280;32145;50.390;30.778;2023-03-25T10:09:55;98954.84;;;15.77;51.65
46448;BME280;32145;50.390;30.778;2023-03-25T10:12:59;98947.19;;;15.79;51.52
46448;BME280;32145;50.390;30.778;2023-03-25T10:16:00;98942.31;;;15.76;51.79
46448;BME280;32145;50.390;30.778;2023-03-25T10:19:07;98936.25;;;15.79;51.65
46448;BME280;32145;50.390;30.778;2023-03-25T10:22:08;98924.69;;;15.88;51.94
46448;BME280;32145;50.390;30.778;2023-03-25T10:25:12;98915.91;;;15.91;51.52
46448;BME280;32145;50.390;30.778;2023-03-25T10:28:13;98925.81;;;15.87;51.39
46448;BME280;32145;50.390;30.778;2023-03-25T10:31:14;98914.34;;;15.84;51.69
46448;BME280;32145;50.390;30.778;2023-03-25T10:34:15;98925.34;;;15.79;51.29
46448;BME280;32145;50.390;30.778;2023-03-25T10:37:16;98926.38;;;15.83;51.21
46448;BME280;32145;50.390;30.778;2023-03-25T10:40:17;98932.53;;;15.70;50.81
46448;BME280;32145;50.390;30.778;2023-03-25T10:43:19;98917.81;;;15.66;51.01
46448;BME280;32145;50.390;30.778;2023-03-25T10:46:25;98915.19;;;15.80;51.49
46448;BME280;32145;50.390;30.778;2023-03-25T10:49:24;98908.41;;;15.77;50.97
46448;BME280;32145;50.390;30.778;2023-03-25T10:52:19;98898.88;;;15.75;50.46
46448;BME280;32145;50.390;30.778;2023-03-25T10:55:21;98899.41;;;15.77;50.93
46448;BME280;32145;50.390;30.778;2023-03-25T10:58:17;98890.31;;;15.81;51.11
46448;BME280;32145;50.390;30.778;2023-03-25T11:01:14;98883.69;;;15.88;50.94
46448;BME280;32145;50.390;30.778;2023-03-25T11:04:12;98880.97;;;15.88;51.17
46448;BME280;32145;50.390;30.778;2023-03-25T11:07:14;98883.44;;;15.84;50.88
46448;BME280;32145;50.390;30.778;2023-03-25T11:10:14;98875.50;;;15.88;51.17
46448;BME280;32145;50.390;30.778;2023-03-25T11:13:12;98883.41;;;15.89;50.93
46448;BME280;32145;50.390;30.778;2023-03-25T11:16:10;98873.25;;;15.95;51.02
46448;BME280;32145;50.390;30.778;2023-03-25T11:19:16;98864.47;;;15.98;50.59
46448;BME280;32145;50.390;30.778;2023-03-25T11:22:14;98871.94;;;15.87;50.86
46448;BME280;32145;50.390;30.778;2023-03-25T11:25:15;98863.44;;;15.89;50.46
46448;BME280;32145;50.390;30.778;2023-03-25T11:28:15;98868.41;;;15.87;50.59
46448;BME280;32145;50.390;30.778;2023-03-25T11:31:14;98864.03;;;15.85;50.65
46448;BME280;32145;50.390;30.778;2023-03-25T11:34:17;98861.94;;;16.02;50.57
46448;BME280;32145;50.390;30.778;2023-03-25T11:37:16;98866.91;;;16.19;50.16
46448;BME280;32145;50.390;30.778;2023-03-25T11:40:14;98861.13;;;16.20;50.01
46448;BME280;32145;50.390;30.778;2023-03-25T11:43:09;98864.53;;;16.31;50.11
46448;BME280;32145;50.390;30.778;2023-03-25T11:46:07;98867.09;;;16.22;49.76
46448;BME280;32145;50.390;30.778;2023-03-25T11:49:09;98863.81;;;16.06;50.17
46448;BME280;32145;50.390;30.778;2023-03-25T11:52:07;98859.03;;;15.93;50.11
46448;BME280;32145;50.390;30.778;2023-03-25T11:55:03;98866.00;;;15.80;50.35
46448;BME280;32145;50.390;30.778;2023-03-25T11:57:59;98866.91;;;15.75;50.73
46448;BME280;32145;50.390;30.778;2023-03-25T12:01:00;98871.06;;;15.72;50.79
46448;BME280;32145;50.390;30.778;2023-03-25T12:04:07;98869.00;;;15.59;50.77
46448;BME280;32145;50.390;30.778;2023-03-25T12:07:08;98882.81;;;15.49;51.06
46448;BME280;32145;50.390;30.778;2023-03-25T12:10:04;98868.41;;;15.43;51.29
46448;BME280;32145;50.390;30.778;2023-03-25T12:13:04;98868.13;;;15.44;51.50
46448;BME280;32145;50.390;30.778;2023-03-25T12:16:08;98865.94;;;15.41;52.00
46448;BME280;32145;50.390;30.778;2023-03-25T12:19:15;98865.41;;;15.39;52.11
46448;BME280;32145;50.390;30.778;2023-03-25T12:22:24;98862.34;;;15.46;51.98
46448;BME280;32145;50.390;30.778;2023-03-25T12:25:35;98856.06;;;15.45;51.77
46448;BME280;32145;50.390;30.778;2023-03-25T12:28:53;98863.97;;;15.47;51.54
46448;BME280;32145;50.390;30.778;2023-03-25T12:32:04;98876.53;;;15.48;51.59
46448;BME280;32145;50.390;30.778;2023-03-25T12:35:14;98875.38;;;15.54;51.53
46448;BME280;32145;50.390;30.778;2023-03-25T12:38:21;98874.34;;;15.69;51.45
46448;BME280;32145;50.390;30.778;2023-03-25T12:41:27;98859.81;;;15.74;51.24
46448;BME280;32145;50.390;30.778;2023-03-25T12:44:39;98863.66;;;15.73;50.97
46448;BME280;32145;50.390;30.778;2023-03-25T12:47:37;98865.88;;;15.71;51.37
46448;BME280;32145;50.390;30.778;2023-03-25T12:50:38;98859.66;;;15.65;51.18
46448;BME280;32145;50.390;30.778;2023-03-25T12:53:47;98858.34;;;15.63;50.88
46448;BME280;32145;50.390;30.778;2023-03-25T12:56:51;98849.44;;;15.52;51.14
46448;BME280;32145;50.390;30.778;2023-03-25T13:00:04;98860.72;;;15.45;51.23
46448;BME280;32145;50.390;30.778;2023-03-25T13:03:30;98848.75;;;15.41;51.43
46448;BME280;32145;50.390;30.778;2023-03-25T13:06:34;98844.31;;;15.45;51.48
46448;BME280;32145;50.390;30.778;2023-03-25T13:09:41;98845.72;;;15.42;51.21
46448;BME280;32145;50.390;30.778;2023-03-25T13:12:42;98839.69;;;15.45;51.27
46448;BME280;32145;50.390;30.778;2023-03-25T13:15:43;98843.69;;;15.53;51.67
46448;BME280;32145;50.390;30.778;2023-03-25T13:18:44;98840.81;;;15.64;51.27
46448;BME280;32145;50.390;30.778;2023-03-25T13:21:44;98841.78;;;15.73;51.09
46448;BME280;32145;50.390;30.778;2023-03-25T13:24:46;98829.16;;;15.77;50.63
46448;BME280;32145;50.390;30.778;2023-03-25T13:27:44;98824.25;;;15.98;50.74
46448;BME280;32145;50.390;30.778;2023-03-25T13:30:45;98825.16;;;16.13;49.95
46448;BME280;32145;50.390;30.778;2023-03-25T13:33:44;98822.19;;;16.29;49.57
46448;BME280;32145;50.390;30.778;2023-03-25T13:36:45;98812.81;;;16.49;49.23
46448;BME280;32145;50.390;30.778;2023-03-25T13:39:53;98805.50;;;16.78;49.02
46448;BME280;32145;50.390;30.778;2023-03-25T13:42:52;98809.53;;;17.13;48.63
46448;BME280;32145;50.390;30.778;2023-03-25T13:45:51;98808.50;;;17.23;47.77
46448;BME280;32145;50.390;30.778;2023-03-25T13:48:53;98801.09;;;17.24;47.69
46448;BME280;32145;50.390;30.778;2023-03-25T13:51:51;98790.53;;;17.31;48.04
46448;BME280;32145;50.390;30.778;2023-03-25T13:54:51;98800.69;;;17.17;47.36
46448;BME280;32145;50.390;30.778;2023-03-25T14:01:41;98784.78;;;16.71;48.07
46448;BME280;32145;50.390;30.778;2023-03-25T14:05:04;98784.91;;;16.66;48.54
46448;BME280;32145;50.390;30.778;2023-03-25T14:08:30;98783.16;;;16.56;48.76
46448;BME280;32145;50.390;30.778;2023-03-25T14:11:38;98786.59;;;16.48;48.58
46448;BME280;32145;50.390;30.778;2023-03-25T14:14:35;98780.47;;;16.37;49.10
46448;BME280;32145;50.390;30.778;2023-03-25T14:17:33;98782.28;;;16.42;49.36
46448;BME280;32145;50.390;30.778;2023-03-25T14:20:34;98771.34;;;16.42;49.14
46448;BME280;32145;50.390;30.778;2023-03-25T14:23:30;98768.28;;;16.29;49.39
46448;BME280;32145;50.390;30.778;2023-03-25T14:26:24;98766.66;;;16.28;49.34
46448;BME280;32145;50.390;30.778;2023-03-25T14:29:30;98767.25;;;16.25;49.78
46448;BME280;32145;50.390;30.778;2023-03-25T14:32:33;98760.56;;;16.17;49.89
46448;BME280;32145;50.390;30.778;2023-03-25T14:35:48;98759.84;;;16.12;49.82
46448;BME280;32145;50.390;30.778;2023-03-25T14:38:52;98752.81;;;16.05;50.00
46448;BME280;32145;50.390;30.778;2023-03-25T14:41:59;98757.53;;;16.00;50.41
46448;BME280;32145;50.390;30.778;2023-03-25T14:48:41;98754.13;;;15.89;50.85
46448;BME280;32145;50.390;30.778;2023-03-25T14:51:44;98742.19;;;15.84;51.10
46448;BME280;32145;50.390;30.778;2023-03-25T14:54:41;98744.47;;;15.77;51.29
46448;BME280;32145;50.390;30.778;2023-03-25T14:57:40;98745.03;;;15.74;51.53
46448;BME280;32145;50.390;30.778;2023-03-25T15:00:39;98732.78;;;15.71;51.40
46448;BME280;32145;50.390;30.778;2023-03-25T15:03:40;98729.41;;;15.61;52.07
46448;BME280;32145;50.390;30.778;2023-03-25T15:06:37;98717.53;;;15.51;52.23
46448;BME280;32145;50.390;30.778;2023-03-25T15:09:44;98712.66;;;15.48;52.18
46448;BME280;32145;50.390;30.778;2023-03-25T15:12:42;98712.22;;;15.41;52.44
46448;BME280;32145;50.390;30.778;2023-03-25T15:15:53;98721.50;;;15.40;52.87
46448;BME280;32145;50.390;30.778;2023-03-25T15:19:07;98719.38;;;15.37;52.93
46448;BME280;32145;50.390;30.778;2023-03-25T15:22:19;98717.47;;;15.37;52.58
46448;BME280;32145;50.390;30.778;2023-03-25T15:25:16;98718.03;;;15.34;52.55
46448;BME280;32145;50.390;30.778;2023-03-25T15:28:17;98726.53;;;15.32;53.29
46448;BME280;32145;50.390;30.778;2023-03-25T15:31:23;98718.41;;;15.27;52.97
46448;BME280;32145;50.390;30.778;2023-03-25T15:41:58;98717.78;;;15.11;53.95
46448;BME280;32145;50.390;30.778;2023-03-25T15:45:17;98704.50;;;15.04;53.98
46448;BME280;32145;50.390;30.778;2023-03-25T15:48:26;98699.41;;;14.98;54.19
46448;BME280;32145;50.390;30.778;2023-03-25T15:51:50;98695.91;;;14.92;54.46
46448;BME280;32145;50.390;30.778;2023-03-25T15:54:49;98680.47;;;14.82;54.46
46448;BME280;32145;50.390;30.778;2023-03-25T15:57:49;98677.53;;;14.73;55.35
46448;BME280;32145;50.390;30.778;2023-03-25T16:00:49;98673.84;;;14.64;55.83
46448;BME280;32145;50.390;30.778;2023-03-25T16:03:55;98671.16;;;14.59;55.81